Time;durP1;ratioP1;P1;durP2;ratioP2;P2;SDS_P1;SDS_P2;PMS_P1;PMS_P2;Temp;Humidity;BMP_temperature;BMP_pressure;BME280_temperature;BME280_humidity;BME280_pressure;Samples;Min_cycle;Max_cycle;Signal;HPM_P1;HPM_P2
2023/05/30 00:02:02;;;;;;;9.00;4.30;;;16.00;13.00;;;;;;5008165;28;20484;-65
2023/05/30 00:04:28;;;;;;;8.83;4.17;;;16.00;13.10;;;;;;5010323;28;21657;-65
2023/05/30 00:06:55;;;;;;;7.77;4.40;;;15.90;13.50;;;;;;5009388;28;20482;-63
2023/05/30 00:09:22;;;;;;;8.33;5.23;;;15.90;13.60;;;;;;5007397;28;20467;-63
2023/05/30 00:11:49;;;;;;;9.13;4.80;;;15.80;13.50;;;;;;5008487;28;20456;-64
2023/05/30 00:14:20;;;;;;;10.10;6.10;;;15.80;13.70;;;;;;5003199;28;20471;-65
2023/05/30 00:16:46;;;;;;;9.50;6.20;;;15.80;13.80;;;;;;5009824;28;20456;-64
2023/05/30 00:19:13;;;;;;;10.80;6.70;;;15.70;13.90;;;;;;5013192;28;20460;-64
2023/05/30 00:21:40;;;;;;;11.30;8.07;;;15.70;14.00;;;;;;5005418;28;20452;-63
2023/05/30 00:24:07;;;;;;;9.10;7.00;;;15.70;14.20;;;;;;5003292;28;20463;-65
2023/05/30 00:26:34;;;;;;;9.60;6.90;;;15.70;14.10;;;;;;5006522;28;20480;-64
2023/05/30 00:29:01;;;;;;;8.93;7.03;;;15.60;14.90;;;;;;5006349;28;20467;-64
2023/05/30 00:31:30;;;;;;;10.30;6.40;;;15.60;14.20;;;;;;5007158;28;20487;-64
2023/05/30 00:33:57;;;;;;;7.93;5.70;;;15.60;14.50;;;;;;5006207;28;20477;-64
2023/05/30 00:36:23;;;;;;;8.33;5.40;;;15.60;14.50;;;;;;5007736;28;20480;-65
2023/05/30 00:38:50;;;;;;;8.00;4.70;;;15.50;15.00;;;;;;5008683;28;20466;-64
2023/05/30 00:41:17;;;;;;;7.90;5.50;;;15.50;14.70;;;;;;5008401;28;20944;-65
2023/05/30 00:43:44;;;;;;;8.17;4.60;;;15.50;14.60;;;;;;5006939;28;20455;-64
2023/05/30 00:46:11;;;;;;;12.70;6.27;;;15.50;14.70;;;;;;5006599;28;20488;-64
2023/05/30 00:48:40;;;;;;;8.77;4.83;;;15.40;15.00;;;;;;5009366;28;20470;-64
2023/05/30 00:51:10;;;;;;;7.60;4.50;;;15.40;15.20;;;;;;5007251;28;20967;-64
2023/05/30 00:53:38;;;;;;;10.60;4.37;;;15.40;15.20;;;;;;5008946;28;20975;-65
2023/05/30 00:56:07;;;;;;;8.77;4.57;;;15.30;15.30;;;;;;5008304;28;20852;-64
2023/05/30 00:58:34;;;;;;;7.50;4.40;;;15.30;15.10;;;;;;5006238;28;20506;-64
2023/05/30 01:01:01;;;;;;;10.03;5.03;;;15.30;15.10;;;;;;5005878;28;20509;-65
2023/05/30 01:03:32;;;;;;;9.30;5.57;;;15.30;15.00;;;;;;5009768;28;20472;-64
2023/05/30 01:06:01;;;;;;;7.80;4.57;;;15.30;15.40;;;;;;5006891;28;20476;-64
2023/05/30 01:08:28;;;;;;;9.17;4.77;;;15.30;15.60;;;;;;5005602;28;20491;-64
2023/05/30 01:11:03;;;;;;;11.70;4.87;;;15.30;15.50;;;;;;5005679;28;20544;-64
2023/05/30 01:13:40;;;;;;;8.57;5.07;;;15.20;15.50;;;;;;5008277;28;20564;-64
2023/05/30 01:16:11;;;;;;;7.03;4.53;;;15.20;15.30;;;;;;5009580;28;20502;-64
2023/05/30 01:18:41;;;;;;;9.33;4.40;;;15.20;15.50;;;;;;5007312;28;20869;-64
2023/05/30 01:21:12;;;;;;;10.27;4.80;;;15.10;15.70;;;;;;5008683;28;20459;-63
2023/05/30 01:23:55;;;;;;;9.43;5.00;;;15.20;15.70;;;;;;5018182;28;20506;-64
2023/05/30 01:26:30;;;;;;;9.47;4.63;;;15.20;15.50;;;;;;5021128;28;20487;-63
2023/05/30 01:29:02;;;;;;;7.57;4.53;;;15.10;15.80;;;;;;5005299;28;20459;-65
2023/05/30 01:31:29;;;;;;;7.53;4.33;;;15.10;15.90;;;;;;5007457;28;21028;-64
2023/05/30 01:33:57;;;;;;;7.53;4.80;;;15.10;15.80;;;;;;5010617;28;20474;-65
2023/05/30 01:36:24;;;;;;;8.43;5.43;;;15.10;15.70;;;;;;5003922;28;20476;-65
2023/05/30 01:38:50;;;;;;;8.43;5.00;;;15.10;15.70;;;;;;5007338;28;20478;-64
2023/05/30 01:41:26;;;;;;;10.13;5.47;;;15.10;16.00;;;;;;5003960;28;20464;-65
2023/05/30 01:44:00;;;;;;;8.73;5.00;;;15.00;15.90;;;;;;5004173;28;20463;-64
2023/05/30 01:46:32;;;;;;;7.23;4.30;;;15.00;15.90;;;;;;5003908;28;20486;-63
2023/05/30 01:49:05;;;;;;;11.93;5.43;;;15.00;16.00;;;;;;5007160;28;20466;-64
2023/05/30 01:51:38;;;;;;;10.23;4.80;;;15.00;15.90;;;;;;5006605;28;20481;-63
2023/05/30 01:54:08;;;;;;;10.20;5.07;;;15.00;15.80;;;;;;5006746;28;20474;-64
2023/05/30 01:56:36;;;;;;;10.33;5.20;;;14.90;16.00;;;;;;5005094;28;20460;-64
2023/05/30 01:59:08;;;;;;;10.30;6.57;;;14.90;15.90;;;;;;5009606;28;20991;-64
2023/05/30 02:01:35;;;;;;;9.97;5.30;;;14.90;16.00;;;;;;5012790;28;20482;-64
2023/05/30 02:04:02;;;;;;;9.20;5.13;;;14.90;16.00;;;;;;5008450;28;20465;-64
2023/05/30 02:06:29;;;;;;;8.20;5.47;;;14.90;16.20;;;;;;5009236;28;21259;-64
2023/05/30 02:08:55;;;;;;;9.70;5.93;;;14.80;16.20;;;;;;5007578;28;20542;-64
2023/05/30 02:11:22;;;;;;;10.30;5.20;;;14.80;16.50;;;;;;5015478;28;20464;-64
2023/05/30 02:13:49;;;;;;;7.80;4.97;;;14.80;16.70;;;;;;5005294;28;20967;-64
2023/05/30 02:16:18;;;;;;;9.20;5.17;;;14.80;16.20;;;;;;5009170;28;20474;-65
2023/05/30 02:18:44;;;;;;;8.63;5.10;;;14.80;16.30;;;;;;5010362;28;20455;-64
2023/05/30 02:21:12;;;;;;;10.50;4.53;;;14.70;16.40;;;;;;5010463;28;21051;-64
2023/05/30 02:23:39;;;;;;;10.60;5.00;;;14.70;16.50;;;;;;5005686;28;20835;-65
2023/05/30 02:26:06;;;;;;;12.97;5.60;;;14.70;16.80;;;;;;5012240;28;21034;-64
2023/05/30 02:28:32;;;;;;;6.50;4.00;;;14.70;16.70;;;;;;5012671;28;20451;-65
2023/05/30 02:30:59;;;;;;;8.57;4.97;;;14.60;16.90;;;;;;5010166;28;21034;-64
2023/05/30 02:33:27;;;;;;;8.70;5.17;;;14.60;17.20;;;;;;5010409;28;20461;-64
2023/05/30 02:35:54;;;;;;;8.33;4.90;;;14.60;17.20;;;;;;5009493;28;20498;-64
2023/05/30 02:38:21;;;;;;;7.93;5.10;;;14.60;17.30;;;;;;5010312;28;20458;-64
2023/05/30 02:40:47;;;;;;;9.60;5.27;;;14.60;17.10;;;;;;5009186;28;20475;-64
2023/05/30 02:43:14;;;;;;;8.83;4.50;;;14.50;17.20;;;;;;5008043;28;21159;-64
2023/05/30 02:45:41;;;;;;;9.67;5.03;;;14.50;17.20;;;;;;5010953;28;20637;-64
2023/05/30 02:48:08;;;;;;;13.93;4.23;;;14.50;17.10;;;;;;5011299;28;20456;-64
2023/05/30 02:50:36;;;;;;;9.53;5.00;;;14.50;17.10;;;;;;5006715;28;20558;-64
2023/05/30 02:53:04;;;;;;;16.20;5.40;;;14.50;17.20;;;;;;5009866;28;20467;-64
2023/05/30 02:55:30;;;;;;;10.90;5.10;;;14.50;17.10;;;;;;5010539;28;20498;-64
2023/05/30 02:57:57;;;;;;;9.30;5.10;;;14.50;16.90;;;;;;5011706;28;20452;-64
2023/05/30 03:00:24;;;;;;;10.60;6.47;;;14.50;16.80;;;;;;5009604;28;20460;-64
2023/05/30 03:02:51;;;;;;;10.07;5.03;;;14.50;16.90;;;;;;5009573;28;20452;-64
2023/05/30 03:05:18;;;;;;;10.70;5.00;;;14.50;16.90;;;;;;5009803;28;20487;-65
2023/05/30 03:07:46;;;;;;;9.07;4.93;;;14.40;17.00;;;;;;5009769;28;20471;-63
2023/05/30 03:10:13;;;;;;;10.97;4.60;;;14.40;17.10;;;;;;5009356;28;20469;-64
2023/05/30 03:12:40;;;;;;;11.60;4.47;;;14.40;17.30;;;;;;5013014;28;20456;-64
2023/05/30 03:15:09;;;;;;;7.90;4.53;;;14.30;17.30;;;;;;5009824;28;20479;-64
2023/05/30 03:17:36;;;;;;;10.90;5.10;;;14.40;17.10;;;;;;5023781;22;20990;-64
2023/05/30 03:20:02;;;;;;;8.87;4.97;;;14.30;17.00;;;;;;5005076;28;20468;-64
2023/05/30 03:22:29;;;;;;;9.33;5.40;;;14.30;17.50;;;;;;5004152;28;20812;-64
2023/05/30 03:24:57;;;;;;;10.43;5.40;;;14.30;16.90;;;;;;5006721;28;20507;-63
2023/05/30 03:27:24;;;;;;;7.10;4.33;;;14.30;17.10;;;;;;5007450;28;20793;-63
2023/05/30 03:29:52;;;;;;;9.10;4.57;;;14.30;17.40;;;;;;5009350;28;20460;-64
2023/05/30 03:32:19;;;;;;;7.63;4.50;;;14.20;17.40;;;;;;5007718;28;20483;-64
2023/05/30 03:34:46;;;;;;;12.73;5.20;;;14.20;17.60;;;;;;5007267;28;20488;-64
2023/05/30 03:37:13;;;;;;;9.67;4.77;;;14.20;17.60;;;;;;5006243;28;20495;-64
2023/05/30 03:39:40;;;;;;;8.97;4.73;;;14.20;17.60;;;;;;5008156;28;20488;-64
2023/05/30 03:42:08;;;;;;;8.80;4.53;;;14.20;17.60;;;;;;5003950;28;20464;-64
2023/05/30 03:44:35;;;;;;;8.80;4.70;;;14.20;17.70;;;;;;5004928;28;20488;-63
2023/05/30 03:47:01;;;;;;;10.27;4.37;;;14.20;17.50;;;;;;5007369;28;20984;-64
2023/05/30 03:49:28;;;;;;;7.33;4.20;;;14.30;17.50;;;;;;5011946;28;21126;-65
2023/05/30 03:51:55;;;;;;;8.87;5.07;;;14.30;17.40;;;;;;5007748;28;20472;-64
2023/05/30 03:54:21;;;;;;;11.40;4.60;;;14.30;17.40;;;;;;5007419;28;20476;-64
2023/05/30 03:56:48;;;;;;;8.60;4.70;;;14.30;17.60;;;;;;5003101;28;20490;-64
2023/05/30 03:59:16;;;;;;;9.90;5.50;;;14.40;17.40;;;;;;5003349;28;20467;-62
2023/05/30 04:01:43;;;;;;;9.63;5.80;;;14.40;17.40;;;;;;5001958;28;20483;-64
2023/05/30 04:04:10;;;;;;;8.50;5.10;;;14.50;17.50;;;;;;4999537;28;20468;-65
2023/05/30 04:06:37;;;;;;;7.73;4.40;;;14.60;17.30;;;;;;5000134;28;20490;-64
2023/05/30 04:09:05;;;;;;;9.00;5.20;;;14.60;17.00;;;;;;5002353;28;20829;-64
2023/05/30 04:11:32;;;;;;;10.40;5.20;;;14.70;17.10;;;;;;5004840;28;20513;-64
2023/05/30 04:13:59;;;;;;;12.20;5.53;;;14.70;17.30;;;;;;5006703;28;20459;-64
2023/05/30 04:16:27;;;;;;;9.43;4.47;;;14.80;17.00;;;;;;5006319;28;20484;-64
2023/05/30 04:18:53;;;;;;;8.67;4.43;;;14.80;16.80;;;;;;5005932;28;20460;-64
2023/05/30 04:21:20;;;;;;;10.40;4.53;;;14.90;16.80;;;;;;5005033;28;20480;-63
2023/05/30 04:23:47;;;;;;;12.53;5.67;;;14.90;16.60;;;;;;5006171;28;20518;-63
2023/05/30 04:26:14;;;;;;;10.30;4.87;;;15.10;16.60;;;;;;5009300;28;20498;-64
2023/05/30 04:28:42;;;;;;;8.27;4.47;;;15.40;16.30;;;;;;5005352;28;20471;-63
2023/05/30 04:31:10;;;;;;;8.57;4.50;;;15.80;15.50;;;;;;5000924;28;20472;-62
2023/05/30 04:33:38;;;;;;;8.27;4.20;;;16.20;14.80;;;;;;5000742;28;20983;-62
2023/05/30 04:36:06;;;;;;;8.23;3.97;;;16.50;14.30;;;;;;5005759;28;20499;-62
2023/05/30 04:38:34;;;;;;;9.87;4.77;;;17.00;13.40;;;;;;4993573;28;20485;-62
2023/05/30 04:41:02;;;;;;;7.90;4.50;;;17.40;12.40;;;;;;5002850;28;20475;-62
2023/05/30 04:43:29;;;;;;;9.13;4.97;;;17.70;11.70;;;;;;4998664;28;20472;-62
2023/05/30 04:46:00;;;;;;;10.40;5.30;;;17.80;11.20;;;;;;5001273;28;20487;-62
2023/05/30 04:48:27;;;;;;;8.90;5.20;;;17.70;11.40;;;;;;5000790;28;20577;-62
2023/05/30 04:50:56;;;;;;;8.57;4.30;;;17.60;11.40;;;;;;5004005;28;20560;-62
2023/05/30 04:53:23;;;;;;;8.07;4.40;;;17.90;11.10;;;;;;5004293;28;20470;-62
2023/05/30 04:55:50;;;;;;;8.10;4.50;;;18.50;10.40;;;;;;5002769;28;20487;-62
2023/05/30 04:58:17;;;;;;;8.00;4.90;;;19.30;9.00;;;;;;5004351;28;20459;-62
2023/05/30 05:00:44;;;;;;;12.20;4.60;;;20.00;7.50;;;;;;5002294;28;20511;-62
2023/05/30 05:03:11;;;;;;;8.10;4.73;;;20.40;6.70;;;;;;5004860;28;21568;-62
2023/05/30 05:05:37;;;;;;;8.20;4.10;;;21.00;5.60;;;;;;4999382;22;20554;-62
2023/05/30 05:08:06;;;;;;;7.60;3.80;;;21.30;4.90;;;;;;5001440;28;20482;-62
2023/05/30 05:10:32;;;;;;;11.43;4.80;;;21.60;4.00;;;;;;5004107;28;20466;-62
2023/05/30 05:12:59;;;;;;;10.60;4.20;;;21.90;3.50;;;;;;5004619;28;20468;-65
2023/05/30 05:15:26;;;;;;;8.33;4.53;;;22.00;3.10;;;;;;5005926;28;20850;-64
2023/05/30 05:17:53;;;;;;;7.77;4.77;;;22.10;3.10;;;;;;5008977;28;20455;-63
2023/05/30 05:20:19;;;;;;;9.70;4.60;;;22.00;3.20;;;;;;5007501;28;20471;-65
2023/05/30 05:22:46;;;;;;;7.63;4.70;;;21.80;3.50;;;;;;5016305;28;20462;-65
2023/05/30 05:25:15;;;;;;;7.60;4.33;;;21.60;3.90;;;;;;5013697;28;20483;-65
2023/05/30 05:27:42;;;;;;;8.40;4.90;;;21.30;4.40;;;;;;5014254;28;20487;-65
2023/05/30 05:30:10;;;;;;;9.20;5.27;;;21.20;4.80;;;;;;5010775;28;20534;-65
2023/05/30 05:32:38;;;;;;;8.37;4.87;;;21.10;5.10;;;;;;5008905;28;20463;-65
2023/05/30 05:35:07;;;;;;;10.63;5.20;;;20.90;5.30;;;;;;5004582;28;20494;-65
2023/05/30 05:37:34;;;;;;;10.23;5.13;;;20.80;5.50;;;;;;4999539;28;20465;-67
2023/05/30 05:40:04;;;;;;;9.33;3.93;;;20.80;5.70;;;;;;5001252;28;21246;-66
2023/05/30 05:42:32;;;;;;;8.50;4.77;;;20.80;6.10;;;;;;5006009;28;20542;-65
2023/05/30 05:44:59;;;;;;;9.97;5.20;;;21.00;6.10;;;;;;5004152;28;20487;-66
2023/05/30 05:47:26;;;;;;;8.03;4.93;;;21.30;5.80;;;;;;5000880;28;20484;-65
2023/05/30 05:49:53;;;;;;;10.93;5.27;;;21.60;5.50;;;;;;5004282;28;20481;-66
2023/05/30 05:52:20;;;;;;;8.20;5.13;;;21.80;4.80;;;;;;4999492;28;20468;-65
2023/05/30 05:54:47;;;;;;;8.47;4.80;;;22.00;4.60;;;;;;5001664;28;20484;-66
2023/05/30 05:57:13;;;;;;;14.10;5.10;;;22.30;4.30;;;;;;4997846;28;20459;-66
2023/05/30 05:59:42;;;;;;;9.37;4.50;;;22.80;3.60;;;;;;5004738;28;20467;-65
2023/05/30 06:02:08;;;;;;;10.10;5.10;;;23.50;2.60;;;;;;4996792;28;20480;-65
2023/05/30 06:04:36;;;;;;;10.00;4.77;;;24.40;1.50;;;;;;4999070;28;20502;-65
2023/05/30 06:07:03;;;;;;;9.43;4.43;;;25.10;1.00;;;;;;5006038;28;20992;-65
2023/05/30 06:09:31;;;;;;;8.50;4.47;;;25.90;1.00;;;;;;5004816;28;20494;-67
2023/05/30 06:11:58;;;;;;;8.70;4.57;;;26.60;1.00;;;;;;5002708;28;20468;-66
2023/05/30 06:14:25;;;;;;;7.63;4.43;;;27.40;1.00;;;;;;5005649;28;20909;-66
2023/05/30 06:16:53;;;;;;;9.30;4.77;;;28.10;1.00;;;;;;5007761;28;20513;-65
2023/05/30 06:19:20;;;;;;;9.33;4.83;;;29.10;1.00;;;;;;5003360;28;20456;-65
2023/05/30 06:21:46;;;;;;;9.20;4.37;;;30.10;1.00;;;;;;5004184;28;20460;-65
2023/05/30 06:24:13;;;;;;;8.20;4.70;;;31.00;1.00;;;;;;5006022;28;20487;-67
2023/05/30 06:26:40;;;;;;;9.03;4.83;;;32.00;1.00;;;;;;5006683;28;20464;-65
2023/05/30 06:29:07;;;;;;;8.20;5.00;;;32.80;1.00;;;;;;5004725;28;20483;-65
2023/05/30 06:31:33;;;;;;;8.17;4.80;;;33.40;1.00;;;;;;5001903;28;20506;-66
2023/05/30 06:34:01;;;;;;;8.73;4.00;;;33.90;1.00;;;;;;5001528;28;20857;-66
2023/05/30 06:36:28;;;;;;;7.67;4.03;;;34.60;1.00;;;;;;4999535;28;20464;-66
2023/05/30 06:38:55;;;;;;;8.57;5.10;;;35.30;1.00;;;;;;5004707;28;20466;-66
2023/05/30 06:41:22;;;;;;;10.07;5.03;;;35.80;1.00;;;;;;5004094;28;20467;-66
2023/05/30 06:43:49;;;;;;;7.10;4.60;;;36.60;1.00;;;;;;5003050;28;20972;-66
2023/05/30 06:46:16;;;;;;;7.50;4.40;;;36.90;1.00;;;;;;5006543;28;20525;-66
2023/05/30 06:48:43;;;;;;;8.20;4.20;;;37.00;1.00;;;;;;5003348;28;20570;-66
2023/05/30 06:51:12;;;;;;;6.87;4.30;;;37.50;1.00;;;;;;5004619;28;20482;-66
2023/05/30 06:53:38;;;;;;;8.00;4.90;;;38.10;1.00;;;;;;5006002;28;20495;-66
2023/05/30 06:56:05;;;;;;;6.80;4.33;;;38.40;1.00;;;;;;5005717;28;20476;-66
2023/05/30 06:58:32;;;;;;;10.77;4.83;;;38.40;1.00;;;;;;5002939;28;20466;-66
2023/05/30 07:00:59;;;;;;;7.53;4.23;;;38.50;1.00;;;;;;5003175;28;20472;-65
2023/05/30 07:03:26;;;;;;;7.50;4.60;;;38.20;1.00;;;;;;5000596;28;20463;-65
2023/05/30 07:05:53;;;;;;;7.00;3.93;;;38.30;1.00;;;;;;5007666;23;20507;-67
2023/05/30 07:08:21;;;;;;;6.97;4.17;;;38.80;1.00;;;;;;4980057;28;20563;-67
2023/05/30 07:10:48;;;;;;;9.00;4.30;;;39.60;1.00;;;;;;4982134;28;20865;-68
2023/05/30 07:13:15;;;;;;;9.07;5.17;;;40.10;1.00;;;;;;4982934;28;20473;-68
2023/05/30 07:15:42;;;;;;;6.93;4.13;;;40.30;1.00;;;;;;4970049;28;21052;-68
2023/05/30 07:18:08;;;;;;;10.63;5.07;;;40.50;1.00;;;;;;4969412;28;20462;-68
2023/05/30 07:20:35;;;;;;;6.77;4.10;;;40.70;1.00;;;;;;4963746;28;20473;-69
2023/05/30 07:23:02;;;;;;;13.83;4.43;;;41.10;1.00;;;;;;4964576;28;20474;-69
2023/05/30 07:25:30;;;;;;;9.50;4.30;;;41.50;1.00;;;;;;4972409;28;20489;-69
2023/05/30 07:27:57;;;;;;;7.80;4.27;;;41.40;1.00;;;;;;4971614;28;20990;-69
2023/05/30 07:30:24;;;;;;;8.30;4.47;;;41.40;1.00;;;;;;4980052;28;20461;-69
2023/05/30 07:32:50;;;;;;;9.20;4.40;;;41.50;1.00;;;;;;4975181;28;21038;-69
2023/05/30 07:35:17;;;;;;;7.00;4.00;;;42.10;1.00;;;;;;4975607;28;20484;-67
2023/05/30 07:37:44;;;;;;;12.40;4.60;;;42.40;1.00;;;;;;4969408;28;20462;-68
2023/05/30 07:40:12;;;;;;;8.33;4.40;;;42.80;1.00;;;;;;4970722;28;20470;-68
2023/05/30 07:42:40;;;;;;;5.63;3.83;;;43.30;1.00;;;;;;4980863;28;20955;-69
2023/05/30 07:45:07;;;;;;;9.07;4.57;;;43.70;1.00;;;;;;4972791;28;20558;-68
2023/05/30 07:47:34;;;;;;;9.77;4.20;;;44.20;1.00;;;;;;4973954;28;20481;-67
2023/05/30 07:50:01;;;;;;;7.17;4.53;;;45.00;1.00;;;;;;4973630;28;20557;-67
2023/05/30 07:52:28;;;;;;;9.30;4.63;;;45.90;1.00;;;;;;4977071;28;20468;-69
2023/05/30 07:54:55;;;;;;;7.90;4.03;;;46.20;1.00;;;;;;4971210;28;20990;-69
2023/05/30 07:57:21;;;;;;;7.30;4.30;;;46.70;1.00;;;;;;4978829;28;20491;-69
2023/05/30 07:59:49;;;;;;;7.07;4.37;;;47.10;1.00;;;;;;4972676;28;20466;-69
2023/05/30 08:02:16;;;;;;;7.67;4.13;;;47.40;1.00;;;;;;4972328;28;20474;-69
2023/05/30 08:04:43;;;;;;;7.40;4.43;;;47.30;1.00;;;;;;4969945;28;20973;-69
2023/05/30 08:07:10;;;;;;;7.97;3.70;;;47.00;1.00;;;;;;4971322;28;20465;-69
2023/05/30 08:09:37;;;;;;;7.90;4.27;;;47.30;1.00;;;;;;4971572;28;20496;-69
2023/05/30 08:12:05;;;;;;;7.63;3.90;;;47.60;1.00;;;;;;4965986;28;20553;-69
2023/05/30 08:14:31;;;;;;;7.50;4.37;;;47.70;1.00;;;;;;4970163;28;20830;-69
2023/05/30 08:17:01;;;;;;;7.67;4.77;;;47.90;1.00;;;;;;4971286;28;20504;-69
2023/05/30 08:19:31;;;;;;;7.93;4.63;;;48.20;1.00;;;;;;4969244;28;20462;-69
2023/05/30 08:21:58;;;;;;;8.17;4.50;;;48.20;1.00;;;;;;4970592;28;20462;-69
2023/05/30 08:24:26;;;;;;;7.10;3.90;;;48.30;1.00;;;;;;4971209;28;20489;-69
2023/05/30 08:26:53;;;;;;;6.70;4.40;;;48.30;1.00;;;;;;4964676;28;20520;-69
2023/05/30 08:29:20;;;;;;;9.30;4.60;;;48.30;1.00;;;;;;4970908;28;20486;-69
2023/05/30 08:31:46;;;;;;;8.20;4.77;;;48.30;1.00;;;;;;4969725;28;21290;-69
2023/05/30 08:34:16;;;;;;;6.10;3.73;;;48.90;1.00;;;;;;4970080;28;20489;-69
2023/05/30 08:36:42;;;;;;;7.90;4.63;;;49.40;1.00;;;;;;4970569;28;20497;-69
2023/05/30 08:39:12;;;;;;;8.83;3.83;;;50.20;1.00;;;;;;4970301;28;20461;-69
2023/05/30 08:41:38;;;;;;;7.57;3.97;;;50.70;1.00;;;;;;4969480;28;20457;-69
2023/05/30 08:44:05;;;;;;;6.83;3.60;;;51.20;1.00;;;;;;4965401;28;20862;-69
2023/05/30 08:46:32;;;;;;;6.60;3.90;;;51.40;1.00;;;;;;4970644;28;20468;-69
2023/05/30 08:48:59;;;;;;;8.60;3.77;;;52.00;1.00;;;;;;4970350;28;20481;-69
2023/05/30 08:51:31;;;;;;;8.07;3.60;;;52.30;1.00;;;;;;4970253;28;20461;-69
2023/05/30 08:54:02;;;;;;;9.33;3.60;;;52.70;1.00;;;;;;4968896;28;20476;-69
2023/05/30 08:56:30;;;;;;;7.83;4.47;;;52.80;1.00;;;;;;4970423;28;20516;-69
2023/05/30 08:59:02;;;;;;;7.40;4.13;;;52.90;1.00;;;;;;4971251;28;20453;-69
2023/05/30 09:01:30;;;;;;;7.17;4.30;;;53.20;1.00;;;;;;4970709;28;20475;-69
2023/05/30 09:03:58;;;;;;;8.57;3.63;;;53.30;1.00;;;;;;4970248;28;20489;-69
2023/05/30 09:06:26;;;;;;;5.30;3.60;;;53.10;1.00;;;;;;4988212;28;20479;-69
2023/05/30 09:08:56;;;;;;;7.53;4.03;;;52.70;1.00;;;;;;4987286;28;20563;-69
2023/05/30 09:11:23;;;;;;;7.33;4.00;;;52.70;1.00;;;;;;4986758;28;20846;-69
2023/05/30 09:13:51;;;;;;;6.60;4.07;;;52.10;1.00;;;;;;4987039;28;20908;-69
2023/05/30 09:16:18;;;;;;;6.70;4.27;;;51.80;1.00;;;;;;4991208;28;20492;-69
2023/05/30 09:18:44;;;;;;;7.77;3.50;;;52.00;1.00;;;;;;4990286;28;20487;-69
2023/05/30 09:21:12;;;;;;;6.60;4.10;;;52.10;1.00;;;;;;4990069;28;20464;-69
2023/05/30 09:23:41;;;;;;;6.30;3.33;;;52.00;1.00;;;;;;4989654;28;20481;-68
2023/05/30 09:26:14;;;;;;;8.07;3.80;;;51.30;1.00;;;;;;4990297;28;20465;-68
2023/05/30 09:28:40;;;;;;;8.20;4.73;;;50.30;1.00;;;;;;4989938;28;20575;-68
2023/05/30 09:31:07;;;;;;;7.30;4.50;;;48.80;1.00;;;;;;4987869;28;20468;-68
2023/05/30 09:33:42;;;;;;;6.90;3.60;;;46.90;1.00;;;;;;4988349;28;20818;-68
2023/05/30 09:36:12;;;;;;;6.67;4.10;;;45.00;1.00;;;;;;4988506;28;20464;-68
2023/05/30 09:38:39;;;;;;;6.90;4.67;;;43.00;1.00;;;;;;4990322;28;20453;-69
2023/05/30 09:41:05;;;;;;;7.27;3.97;;;41.10;1.00;;;;;;4990592;28;20543;-69
2023/05/30 09:43:35;;;;;;;7.70;4.40;;;39.30;1.00;;;;;;4990163;28;20451;-69
2023/05/30 09:46:03;;;;;;;6.40;3.80;;;37.90;1.00;;;;;;4984549;28;20496;-69
2023/05/30 09:48:30;;;;;;;6.30;3.70;;;36.70;1.00;;;;;;4990656;28;20481;-69
2023/05/30 09:51:00;;;;;;;7.13;4.00;;;35.70;1.00;;;;;;4989785;28;20471;-70
2023/05/30 09:53:29;;;;;;;6.33;4.07;;;34.80;1.00;;;;;;4989734;28;20457;-69
2023/05/30 09:55:56;;;;;;;8.13;4.70;;;34.10;1.00;;;;;;4988403;28;20523;-69
2023/05/30 09:58:24;;;;;;;7.70;4.47;;;33.40;1.00;;;;;;4990801;28;20449;-69
2023/05/30 10:00:52;;;;;;;8.57;4.37;;;32.70;1.00;;;;;;4989340;28;20468;-69
2023/05/30 10:03:20;;;;;;;9.07;4.57;;;32.30;1.00;;;;;;4990595;28;20456;-69
2023/05/30 10:05:47;;;;;;;7.50;3.33;;;31.80;1.00;;;;;;4975340;28;20510;-69
2023/05/30 10:08:15;;;;;;;9.07;4.20;;;31.30;1.00;;;;;;4963498;28;22082;-69
2023/05/30 10:10:42;;;;;;;10.47;4.50;;;30.90;1.00;;;;;;4966548;28;20450;-69
2023/05/30 10:13:09;;;;;;;9.77;4.67;;;30.50;1.00;;;;;;4971812;28;20469;-69
2023/05/30 10:15:36;;;;;;;8.43;4.00;;;30.20;1.00;;;;;;4969606;28;20498;-69
2023/05/30 10:18:07;;;;;;;10.40;5.30;;;29.90;1.00;;;;;;4967948;28;20466;-68
2023/05/30 10:20:37;;;;;;;6.63;3.60;;;29.60;1.00;;;;;;4975498;28;20467;-69
2023/05/30 10:23:07;;;;;;;6.60;4.17;;;29.30;1.00;;;;;;4975076;28;20870;-69
2023/05/30 10:25:36;;;;;;;8.67;3.73;;;29.20;1.00;;;;;;4975617;28;20544;-68
2023/05/30 10:28:04;;;;;;;9.10;3.97;;;29.00;1.00;;;;;;4970915;28;20457;-68
2023/05/30 10:30:33;;;;;;;7.90;3.70;;;28.80;1.00;;;;;;4974242;28;20470;-68
2023/05/30 10:33:03;;;;;;;9.43;4.03;;;28.70;1.00;;;;;;4974116;28;20462;-68
2023/05/30 10:35:33;;;;;;;9.30;4.00;;;28.40;1.00;;;;;;4975191;28;20488;-66
2023/05/30 10:38:00;;;;;;;8.10;4.17;;;28.30;1.00;;;;;;4975035;28;20461;-69
2023/05/30 10:40:40;;;;;;;7.40;3.97;;;28.00;1.00;;;;;;4974754;28;20461;-68
2023/05/30 10:43:23;;;;;;;10.03;3.70;;;27.80;1.00;;;;;;4970867;28;20459;-66
2023/05/30 10:46:00;;;;;;;7.83;3.60;;;27.70;1.00;;;;;;4972271;28;20457;-66
2023/05/30 10:48:33;;;;;;;9.43;4.20;;;27.50;1.00;;;;;;4972087;28;20461;-69
2023/05/30 10:51:01;;;;;;;10.30;3.97;;;27.40;1.00;;;;;;4972189;28;20468;-68
2023/05/30 10:53:28;;;;;;;10.53;3.70;;;27.10;1.00;;;;;;4967734;28;20457;-67
2023/05/30 10:55:55;;;;;;;9.80;4.20;;;27.00;1.00;;;;;;4971731;28;20508;-67
2023/05/30 10:58:38;;;;;;;8.60;4.10;;;26.90;1.00;;;;;;4972885;28;20943;-67
2023/05/30 11:01:26;;;;;;;7.27;3.90;;;26.80;1.00;;;;;;4968245;28;20470;-67
2023/05/30 11:04:03;;;;;;;8.20;4.43;;;26.60;1.00;;;;;;4971074;28;20568;-67
2023/05/30 11:06:34;;;;;;;6.60;4.17;;;26.50;1.00;;;;;;4990377;28;20467;-66
2023/05/30 11:09:10;;;;;;;7.40;4.10;;;26.40;1.00;;;;;;4989021;28;20571;-67
2023/05/30 11:11:41;;;;;;;8.77;4.10;;;26.30;1.00;;;;;;4992420;28;20956;-67
2023/05/30 11:14:08;;;;;;;9.00;4.10;;;26.30;1.00;;;;;;4989106;28;20567;-67
2023/05/30 11:16:48;;;;;;;7.90;3.67;;;26.20;1.00;;;;;;4993271;28;20464;-67
2023/05/30 11:19:15;;;;;;;10.17;4.10;;;26.20;1.00;;;;;;4993097;28;20465;-67
2023/05/30 11:22:02;;;;;;;6.77;4.10;;;26.10;1.00;;;;;;4990790;28;20495;-67
2023/05/30 11:24:30;;;;;;;7.10;3.60;;;25.90;1.00;;;;;;4992234;28;20547;-67
2023/05/30 11:27:00;;;;;;;10.50;4.07;;;25.80;1.00;;;;;;4992001;28;20816;-68
2023/05/30 11:29:38;;;;;;;10.83;4.00;;;25.70;1.00;;;;;;4992361;28;20493;-67
2023/05/30 11:32:07;;;;;;;6.90;3.80;;;25.70;1.00;;;;;;4989179;28;20464;-67
2023/05/30 11:34:34;;;;;;;7.30;4.30;;;25.70;1.00;;;;;;4991230;28;20519;-67
2023/05/30 11:37:03;;;;;;;8.30;4.00;;;25.70;1.00;;;;;;4992738;28;20467;-67
2023/05/30 11:39:32;;;;;;;7.13;3.87;;;25.60;1.00;;;;;;4990667;28;20505;-67
2023/05/30 11:42:00;;;;;;;5.90;3.30;;;25.50;1.00;;;;;;4990816;28;20496;-67
2023/05/30 11:44:28;;;;;;;6.80;3.50;;;25.50;1.00;;;;;;4989332;28;20480;-67
2023/05/30 11:47:03;;;;;;;9.63;4.07;;;25.40;1.00;;;;;;4993219;28;20467;-67
2023/05/30 11:49:30;;;;;;;6.83;3.90;;;25.40;1.00;;;;;;4989603;28;20571;-67
2023/05/30 11:51:56;;;;;;;8.17;3.20;;;25.30;1.00;;;;;;4995058;28;20480;-67
2023/05/30 11:54:25;;;;;;;9.00;3.63;;;25.30;1.00;;;;;;4986850;28;20496;-67
2023/05/30 11:56:52;;;;;;;8.47;4.07;;;25.20;1.00;;;;;;4988193;28;20465;-67
2023/05/30 11:59:20;;;;;;;11.10;5.20;;;25.20;1.00;;;;;;4990968;28;20452;-67
2023/05/30 12:01:55;;;;;;;7.87;4.10;;;25.20;1.00;;;;;;4991135;28;20510;-67
2023/05/30 12:04:26;;;;;;;7.33;3.40;;;25.10;1.00;;;;;;4988585;28;20604;-67
2023/05/30 12:06:53;;;;;;;10.10;3.73;;;25.00;1.00;;;;;;4966642;28;20469;-67
2023/05/30 12:09:21;;;;;;;7.67;3.10;;;24.90;1.00;;;;;;4971666;28;20488;-67
2023/05/30 12:11:57;;;;;;;11.37;4.10;;;24.90;1.00;;;;;;4971020;28;20465;-67
2023/05/30 12:14:53;;;;;;;6.57;3.20;;;24.80;1.00;;;;;;4973277;28;20492;-67
2023/05/30 12:17:21;;;;;;;6.90;3.60;;;24.80;1.00;;;;;;4976858;28;20462;-67
2023/05/30 12:19:51;;;;;;;8.40;4.07;;;24.80;1.00;;;;;;4974889;28;20835;-67
2023/05/30 12:22:17;;;;;;;6.87;3.90;;;24.80;1.00;;;;;;4976220;28;20464;-67
2023/05/30 12:24:45;;;;;;;7.00;3.47;;;24.80;1.00;;;;;;4975055;28;20497;-68
2023/05/30 12:27:18;;;;;;;6.90;3.10;;;24.80;1.00;;;;;;4975843;28;20489;-67
2023/05/30 12:29:45;;;;;;;8.87;3.67;;;24.70;1.00;;;;;;4974704;28;20504;-67
2023/05/30 12:32:12;;;;;;;8.90;4.20;;;24.70;1.00;;;;;;4971453;28;20469;-67
2023/05/30 12:34:43;;;;;;;6.10;3.30;;;24.70;1.00;;;;;;4972524;28;20477;-67
2023/05/30 12:37:11;;;;;;;10.03;3.20;;;24.70;1.00;;;;;;4977592;28;20465;-67
2023/05/30 12:39:48;;;;;;;7.87;3.70;;;24.60;1.00;;;;;;4976460;28;20462;-67
2023/05/30 12:42:20;;;;;;;9.80;3.73;;;24.50;1.00;;;;;;4972378;28;20461;-67
2023/05/30 12:44:50;;;;;;;8.63;3.60;;;24.40;1.00;;;;;;4969433;28;20516;-67
2023/05/30 12:47:17;;;;;;;23.57;4.13;;;24.50;1.00;;;;;;4970310;28;20485;-69
2023/05/30 12:49:44;;;;;;;8.80;3.03;;;24.50;1.00;;;;;;4971591;28;20485;-67
2023/05/30 12:52:12;;;;;;;8.17;3.60;;;24.50;1.00;;;;;;4971287;28;20803;-67
2023/05/30 12:54:40;;;;;;;7.47;4.00;;;24.60;1.00;;;;;;4969383;28;20493;-67
2023/05/30 12:57:08;;;;;;;10.10;3.40;;;24.60;1.00;;;;;;4969209;28;20496;-67